• Join FlightAware (Why Join?)
  • Login
  • US Flag 
11:39PM EST


 

Airport Tracker/Info


-or-


 

Live Flight TrackerFlight Track Log ✈ CHH7162 ✈ 03-May-2013 ✈ ZUCK / CKG - ZBAA / PEK

Flight Track Log - Related Links

Times and Time Zones

All times are in EDT time to prevent confusion due to time zone crossing. See the CHH7162 flight status page for this flight to view local times or setup timezone preferences in your user account.

Time Position Orientation Groundspeed Altitude Reporting Facility
EDT Latitude Longitude Course Direction KTS MPH feet Rate Location/Type
06:05AM 29.8088 106.7144 35° Northeast  Level Estimated
06:06AM 29.8981 106.7879 35° Northeast  Level Estimated
06:07AM 29.9874 106.8615 36° Northeast  Level Estimated
06:08AM 30.0767 106.9353 36° Northeast  Level Estimated
06:09AM 30.1659 107.0092 36° Northeast  Level Estimated
06:10AM 30.2551 107.0832 36° Northeast  Level Estimated
06:11AM 30.3442 107.1574 36° Northeast  Level Estimated
06:12AM 30.4333 107.2317 36° Northeast  Level Estimated
06:13AM 30.5224 107.3062 36° Northeast  Level Estimated
06:14AM 30.6114 107.3807 36° Northeast  Level Estimated
06:15AM 30.7003 107.4555 36° Northeast  Level Estimated
06:16AM 30.7893 107.5303 36° Northeast  Level Estimated
06:17AM 30.8782 107.6053 36° Northeast  Level Estimated
06:18AM 30.9670 107.6804 36° Northeast  Level Estimated
06:19AM 31.0558 107.7557 36° Northeast  Level Estimated
06:20AM 31.1446 107.8311 36° Northeast  Level Estimated
06:21AM 31.2333 107.9067 36° Northeast  Level Estimated
06:22AM 31.3219 107.9824 36° Northeast  Level Estimated
06:23AM 31.4105 108.0582 36° Northeast  Level Estimated
06:24AM 31.4991 108.1342 36° Northeast  Level Estimated
06:25AM 31.5877 108.2103 36° Northeast  Level Estimated
06:26AM 31.6761 108.2866 36° Northeast  Level Estimated
06:27AM 31.7646 108.3630 36° Northeast  Level Estimated
06:28AM 31.8530 108.4396 36° Northeast  Level Estimated
06:29AM 31.9413 108.5163 36° Northeast  Level Estimated
06:30AM 32.0296 108.5931 36° Northeast  Level Estimated
06:31AM 32.1179 108.6701 36° Northeast  Level Estimated
06:32AM 32.2061 108.7473 36° Northeast  Level Estimated
06:33AM 32.2943 108.8246 37° Northeast  Level Estimated
06:34AM 32.3824 108.9020 37° Northeast  Level Estimated
06:35AM 32.4705 108.9796 37° Northeast  Level Estimated
06:36AM 32.5585 109.0574 37° Northeast  Level Estimated
06:37AM 32.6464 109.1353 37° Northeast  Level Estimated
06:38AM 32.7344 109.2133 37° Northeast  Level Estimated
06:39AM 32.8222 109.2916 37° Northeast  Level Estimated
06:40AM 32.9101 109.3699 37° Northeast  Level Estimated
06:41AM 32.9978 109.4485 37° Northeast  Level Estimated
06:42AM 33.0856 109.5272 37° Northeast  Level Estimated
06:43AM 33.1733 109.6060 37° Northeast  Level Estimated
06:44AM 33.2609 109.6850 37° Northeast  Level Estimated
06:45AM 33.3485 109.7642 37° Northeast  Level Estimated
06:46AM 33.4360 109.8435 37° Northeast  Level Estimated
06:47AM 33.5235 109.9230 37° Northeast  Level Estimated
06:48AM 33.6109 110.0026 37° Northeast  Level Estimated
06:49AM 33.6983 110.0824 37° Northeast  Level Estimated
06:50AM 33.7856 110.1624 37° Northeast  Level Estimated
06:51AM 33.8729 110.2425 37° Northeast  Level Estimated
06:52AM 33.9601 110.3228 37° Northeast  Level Estimated
06:53AM 34.0473 110.4032 37° Northeast  Level Estimated
06:54AM 34.1344 110.4838 37° Northeast  Level Estimated
06:55AM 34.2215 110.5646 37° Northeast  Level Estimated
06:56AM 34.3085 110.6456 38° Northeast  Level Estimated
06:57AM 34.3954 110.7267 38° Northeast  Level Estimated
06:58AM 34.4823 110.8080 38° Northeast  Level Estimated
06:59AM 34.5692 110.8894 38° Northeast  Level Estimated
07:00AM 34.6560 110.9711 38° Northeast  Level Estimated
07:01AM 34.7427 111.0529 38° Northeast  Level Estimated
07:02AM 34.8294 111.1348 38° Northeast  Level Estimated
07:03AM 34.9160 111.2170 38° Northeast  Level Estimated
07:04AM 35.0026 111.2993 38° Northeast  Level Estimated
07:05AM 35.0891 111.3818 38° Northeast  Level Estimated
07:06AM 35.1756 111.4645 38° Northeast  Level Estimated
07:07AM 35.2620 111.5473 38° Northeast  Level Estimated
07:08AM 35.3484 111.6303 38° Northeast  Level Estimated
07:09AM 35.4346 111.7135 38° Northeast  Level Estimated
07:10AM 35.5209 111.7969 38° Northeast  Level Estimated
07:11AM 35.6071 111.8805 38° Northeast  Level Estimated
07:12AM 35.6932 111.9642 38° Northeast  Level Estimated
07:13AM 35.7792 112.0481 38° Northeast  Level Estimated
07:14AM 35.8652 112.1322 38° Northeast  Level Estimated
07:15AM 35.9512 112.2165 38° Northeast  Level Estimated
07:16AM 36.0371 112.3010 38° Northeast  Level Estimated
07:17AM 36.1229 112.3856 39° Northeast  Level Estimated
07:18AM 36.2087 112.4704 39° Northeast  Level Estimated
07:19AM 36.2944 112.5555 39° Northeast  Level Estimated
07:20AM 36.3801 112.6407 39° Northeast  Level Estimated
07:21AM 36.4656 112.7261 39° Northeast  Level Estimated
07:22AM 36.5512 112.8117 39° Northeast  Level Estimated
07:23AM 36.6366 112.8974 39° Northeast  Level Estimated
07:24AM 36.7149 112.9762 39° Northeast  Level Estimated
07:25AM 36.7930 113.0551 39° Northeast  Level Estimated
07:26AM 36.8712 113.1341 39° Northeast  Level Estimated
07:27AM 36.9492 113.2133 39° Northeast  Level Estimated
07:28AM 37.0273 113.2927 39° Northeast  Level Estimated
07:29AM 37.1052 113.3723 39° Northeast  Level Estimated
07:30AM 37.1832 113.4520 39° Northeast  Level Estimated
07:31AM 37.2610 113.5319 39° Northeast  Level Estimated
07:32AM 37.3388 113.6119 39° Northeast  Level Estimated
07:33AM 37.4166 113.6921 39° Northeast  Level Estimated
07:34AM 37.4943 113.7725 39° Northeast  Level Estimated
07:35AM 37.5719 113.8530 39° Northeast  Level Estimated
07:36AM 37.6495 113.9337 39° Northeast  Level Estimated
07:37AM 37.7271 114.0146 40° Northeast  Level Estimated
07:38AM 37.8046 114.0957 40° Northeast  Level Estimated
07:39AM 37.8820 114.1769 40° Northeast  Level Estimated
07:40AM 37.9594 114.2583 40° Northeast  Level Estimated
07:41AM 38.0367 114.3398 40° Northeast  Level Estimated
07:42AM 38.1139 114.4216 40° Northeast  Level Estimated
07:43AM 38.1911 114.5035 40° Northeast  Level Estimated
07:44AM 38.2683 114.5855 40° Northeast  Level Estimated
07:45AM 38.3454 114.6678 40° Northeast  Level Estimated
07:46AM 38.4224 114.7502 40° Northeast  Level Estimated
07:47AM 38.4994 114.8328 40° Northeast  Level Estimated
07:48AM 38.5763 114.9156 40° Northeast  Level Estimated
07:49AM 38.6531 114.9986 40° Northeast  Level Estimated
07:50AM 38.7299 115.0817 40° Northeast  Level Estimated
07:51AM 38.8067 115.1650 40° Northeast  Level Estimated
07:52AM 38.8834 115.2485 40° Northeast  Level Estimated
07:53AM 38.9600 115.3322 40° Northeast  Level Estimated
07:54AM 39.0365 115.4161 40° Northeast  Level Estimated
07:55AM 39.1130 115.5001 40° Northeast  Level Estimated
07:56AM 39.1895 115.5843 40° Northeast  Level Estimated
07:57AM 39.2659 115.6687 41° Northeast  Level Estimated
07:58AM 39.3422 115.7533 41° Northeast  Level Estimated
07:59AM 39.4184 115.8381 41° Northeast  Level Estimated
08:00AM 39.4946 115.9231 41° Northeast  Level Estimated
08:01AM 39.5708 116.0082 41° Northeast  Level Estimated
08:02AM 39.6468 116.0935 41° Northeast  Level Estimated
08:03AM 39.7229 116.1791 41° Northeast  Level Estimated
08:04AM 39.7988 116.2648 41° Northeast  Level Estimated
08:05AM 39.8747 116.3507 41° Northeast  Level Estimated
08:06AM 39.9505 116.4368 41° Northeast  Level Estimated
08:07AM 40.0262 116.5230 41° Northeast  Level Estimated
08:08AM 40.0801 116.5846 41° Northeast  Level Estimated
08:09AM 40.0801 116.5846 288° West  Level Estimated
08:10AM 40.0801 116.5846 288° West  Level Estimated
08:11AM 40.0801 116.5846 288° West  Level Estimated
08:12AM 40.0801 116.5846 288° West  Level Estimated
08:13AM 40.0801 116.5846 288° West  Level Estimated
08:14AM 40.0801 116.5846 288° West  Level Estimated
08:15AM 40.0801 116.5846 288° West  Level Estimated
08:16AM 40.0801 116.5846 288° West  Level Estimated
08:17AM 40.0801 116.5846 288° West  Level Estimated
08:18AM 40.0801 116.5846 288° West  Level Estimated
08:19AM 40.0801 116.5846 288° West  Level Estimated
08:20AM 40.0801 116.5846 288° West  Level Estimated
08:21AM 40.0801 116.5846 288° West  Level Estimated
08:22AM 40.0801 116.5846 288° West  Level Estimated
08:23AM 40.0801 116.5846 288° West  Level Estimated
08:24AM 40.0801 116.5846 288° West  Level Estimated
08:25AM 40.0801 116.5846 288° West  Level Estimated
08:26AM 40.0801 116.5846 288° West  Level Estimated
08:27AM 40.0801 116.5846 288° West  Level Estimated
08:28AM 40.0801 116.5846 288° West  Level Estimated
08:29AM 40.0801 116.5846 288° West  Level Estimated
08:30AM 40.0801 116.5846 288° West  Level Estimated
08:31AM 40.0801 116.5846 288° West  Level Estimated
08:32AM 40.0801 116.5846 288° West  Level Estimated
08:33AM 40.0801 116.5846 288° West  Level Estimated
08:34AM 40.0801 116.5846 288° West  Level Estimated
08:35AM 40.0801 116.5846 288° West  Level Estimated
08:36AM 40.0801 116.5846 288° West  Level Estimated
08:37AM 40.0801 116.5846 288° West  Level Estimated
08:38AM 40.0801 116.5846 288° West  Level Estimated
08:39AM 40.0801 116.5846 288° West  Level Estimated
08:40AM 40.0801 116.5846 288° West  Level Estimated
08:41AM 40.0801 116.5846 288° West  Level Estimated
08:42AM 40.0801 116.5846 288° West  Level Estimated
08:43AM 40.0801 116.5846 288° West  Level Estimated
08:44AM 40.0801 116.5846 288° West  Level Estimated
08:45AM 40.0801 116.5846 288° West  Level Estimated
08:46AM 40.0801 116.5846 288° West  Level Estimated
08:47AM 40.0801 116.5846 288° West  Level Estimated
08:48AM 40.0801 116.5846 288° West  Level Estimated
08:49AM 40.0801 116.5846 288° West  Level Estimated
08:50AM 40.0801 116.5846 288° West  Level Estimated
08:51AM 40.0801 116.5846 288° West  Level Estimated
08:52AM 40.0801 116.5846 288° West  Level Estimated
08:53AM 40.0801 116.5846 288° West  Level Estimated
08:54AM 40.0801 116.5846 288° West  Level Estimated
08:55AM 40.0801 116.5846 288° West  Level Estimated
08:56AM 40.0801 116.5846 288° West  Level Estimated
08:57AM 40.0801 116.5846 288° West  Level Estimated
08:58AM 40.0801 116.5846 288° West  Level Estimated
08:59AM 40.0801 116.5846 288° West  Level Estimated
09:00AM 40.0801 116.5846 288° West  Level Estimated
09:01AM 40.0801 116.5846 288° West  Level Estimated
09:02AM 40.0801 116.5846 288° West  Level Estimated
09:03AM 40.0801 116.5846 288° West  Level Estimated
09:04AM 40.0801 116.5846 288° West  Level Estimated
09:05AM 40.0801 116.5846 288° West  Level Estimated
09:06AM 40.0801 116.5846 288° West  Level Estimated
09:07AM 40.0801 116.5846 288° West  Level Estimated
09:08AM 40.0801 116.5846 288° West  Level Estimated
09:09AM 40.0801 116.5846 288° West  Level Estimated
09:10AM 40.0801 116.5846 288° West  Level Estimated
09:10AM 39.9490 116.5940 288° West 193 222 2,500  Level FlightAware
09:10AM 39.9700 116.5900 352° North 193 222 2,500 -780 Level FlightAware
09:11AM 40.0801 116.5846 288° West  Level Estimated
09:11AM 40.0190 116.5830 354° North 172 198 1,400  Level FlightAware
09:14AM 40.0801 116.5846 North  Level Estimated
09:15AM 40.0801 116.5846 288° West  Level Estimated
09:16AM 40.0801 116.5846 288° West  Level Estimated
09:17AM 40.0801 116.5846 288° West  Level Estimated
09:18AM 40.0801 116.5846 288° West  Level Estimated
09:19AM 40.0801 116.5846 288° West  Level Estimated
09:20AM 40.0801 116.5846 288° West  Level Estimated